Terminal Aerodrome Forecast
Issued by NWS Missoula, MT

Current Version | Previous Version | Text Only | Print | Product List | Glossary On
Versions: 1 2 3 4 5 6 7 8 9 10 11 12 13
353
FTUS45 KMSO 170531
TAFMSO
TAF
KMSO 170531Z 1706/1806 VRB05KT P6SM SKC
     FM172000 27012G20KT P6SM SCT200
     FM172300 28016G26KT P6SM VCSH SCT100 WS020/26045KT
     FM180400 29013G23KT P6SM VCSH BKN080=

USA.gov is the U.S. government's official web portal to all federal, state and local government web resources and services.